Time;durP1;ratioP1;P1;durP2;ratioP2;P2;SDS_P1;SDS_P2;PMS_P1;PMS_P2;Temp;Humidity;BMP_temperature;BMP_pressure;BME280_temperature;BME280_humidity;BME280_pressure;Samples;Min_cycle;Max_cycle;Signal;HPM_P1;HPM_P2
2024/01/02 00:01:24;;;;;;;10.90;2.63;;;;;;;;;;4985124;28;20054;-67
2024/01/02 00:03:51;;;;;;;8.80;2.38;;;;;;;;;;4988040;28;20056;-67
2024/01/02 00:06:19;;;;;;;12.02;2.72;;;;;;;;;;4987773;28;20634;-67
2024/01/02 00:08:46;;;;;;;10.48;2.35;;;;;;;;;;4983224;28;20476;-66
2024/01/02 00:11:13;;;;;;;9.95;2.25;;;;;;;;;;4989388;28;20077;-66
2024/01/02 00:13:40;;;;;;;8.05;2.63;;;;;;;;;;4988730;28;20047;-67
2024/01/02 00:16:08;;;;;;;12.45;2.53;;;;;;;;;;4988395;28;20070;-67
2024/01/02 00:18:37;;;;;;;10.68;2.72;;;;;;;;;;4984503;28;20058;-67
2024/01/02 00:21:04;;;;;;;9.23;2.50;;;;;;;;;;4985567;28;20590;-67
2024/01/02 00:23:32;;;;;;;10.80;2.30;;;;;;;;;;4972795;28;20050;-67
2024/01/02 00:25:59;;;;;;;7.65;2.40;;;;;;;;;;4991423;28;20042;-67
2024/01/02 00:28:26;;;;;;;22.48;5.50;;;;;;;;;;4989478;28;20046;-67
2024/01/02 00:30:53;;;;;;;8.63;2.10;;;;;;;;;;4988803;28;20487;-67
2024/01/02 00:33:21;;;;;;;10.38;2.10;;;;;;;;;;4993182;28;20053;-67
2024/01/02 00:35:49;;;;;;;13.98;2.58;;;;;;;;;;4989983;28;20436;-67
2024/01/02 00:38:17;;;;;;;15.57;2.72;;;;;;;;;;4991537;28;20061;-67
2024/01/02 00:40:45;;;;;;;11.13;2.42;;;;;;;;;;4988898;28;20104;-67
2024/01/02 00:43:12;;;;;;;12.00;2.25;;;;;;;;;;4990330;28;20064;-67
2024/01/02 00:45:39;;;;;;;11.93;2.55;;;;;;;;;;4973060;28;20046;-67
2024/01/02 00:48:07;;;;;;;11.48;2.55;;;;;;;;;;4990609;28;20062;-67
2024/01/02 00:50:34;;;;;;;13.07;2.40;;;;;;;;;;4989396;28;20049;-67
2024/01/02 00:53:05;;;;;;;13.00;2.33;;;;;;;;;;4990347;28;20058;-67
2024/01/02 00:55:32;;;;;;;9.00;2.08;;;;;;;;;;4990962;28;20053;-67
2024/01/02 00:57:59;;;;;;;12.20;2.05;;;;;;;;;;4988943;28;20452;-67
2024/01/02 01:00:26;;;;;;;7.88;2.55;;;;;;;;;;4984707;28;20504;-67
2024/01/02 01:02:53;;;;;;;11.30;2.20;;;;;;;;;;4988639;28;20054;-67
2024/01/02 01:05:21;;;;;;;17.00;2.92;;;;;;;;;;4992042;28;20070;-67
2024/01/02 01:07:48;;;;;;;18.63;2.20;;;;;;;;;;4989553;28;20046;-67
2024/01/02 01:10:17;;;;;;;12.23;1.98;;;;;;;;;;4988969;28;20050;-67
2024/01/02 01:12:45;;;;;;;19.13;2.13;;;;;;;;;;4990340;28;20052;-67
2024/01/02 01:15:12;;;;;;;12.55;2.05;;;;;;;;;;4992081;28;20064;-67
2024/01/02 01:17:39;;;;;;;15.00;2.55;;;;;;;;;;4990346;28;20050;-67
2024/01/02 01:20:08;;;;;;;14.93;2.47;;;;;;;;;;4990775;28;20525;-67
2024/01/02 01:22:36;;;;;;;15.98;2.50;;;;;;;;;;4990639;28;20493;-67
2024/01/02 01:25:03;;;;;;;16.02;2.35;;;;;;;;;;4981218;28;20054;-67
2024/01/02 01:27:32;;;;;;;13.70;2.10;;;;;;;;;;4986683;28;20101;-66
2024/01/02 01:29:59;;;;;;;11.57;2.80;;;;;;;;;;4973626;28;20439;-66
2024/01/02 01:32:27;;;;;;;15.95;2.65;;;;;;;;;;4989386;28;20057;-66
2024/01/02 01:34:54;;;;;;;16.13;2.60;;;;;;;;;;4989676;28;20406;-67
2024/01/02 01:37:21;;;;;;;16.15;2.78;;;;;;;;;;4988801;28;20054;-66
2024/01/02 01:39:49;;;;;;;20.48;2.53;;;;;;;;;;4984090;28;20050;-67
2024/01/02 01:42:16;;;;;;;23.38;2.90;;;;;;;;;;4982927;28;20061;-66
2024/01/02 01:44:45;;;;;;;12.50;2.60;;;;;;;;;;4987839;28;20042;-66
2024/01/02 01:47:12;;;;;;;20.63;3.20;;;;;;;;;;4979182;28;20066;-66
2024/01/02 01:49:39;;;;;;;20.92;3.03;;;;;;;;;;4985683;28;20058;-67
2024/01/02 01:52:07;;;;;;;11.73;2.53;;;;;;;;;;4989378;28;20050;-66
2024/01/02 01:54:34;;;;;;;11.30;2.83;;;;;;;;;;4983215;28;20046;-66
2024/01/02 01:57:01;;;;;;;18.75;3.08;;;;;;;;;;4979745;28;20052;-66
2024/01/02 01:59:29;;;;;;;19.55;2.75;;;;;;;;;;4984665;28;20050;-67
2024/01/02 02:01:57;;;;;;;15.95;3.15;;;;;;;;;;4982906;28;20042;-67
2024/01/02 02:04:25;;;;;;;14.35;2.80;;;;;;;;;;4985966;28;20053;-66
2024/01/02 02:06:52;;;;;;;12.25;3.20;;;;;;;;;;4988656;28;20446;-67
2024/01/02 02:09:20;;;;;;;10.52;2.75;;;;;;;;;;4984859;28;20113;-66
2024/01/02 02:11:47;;;;;;;15.90;3.03;;;;;;;;;;4987401;28;20486;-67
2024/01/02 02:14:14;;;;;;;12.95;3.45;;;;;;;;;;4983803;28;20052;-67
2024/01/02 02:16:43;;;;;;;20.75;3.72;;;;;;;;;;4986764;28;20520;-66
2024/01/02 02:19:11;;;;;;;7.72;2.60;;;;;;;;;;4987420;28;20098;-66
2024/01/02 02:21:39;;;;;;;13.65;2.97;;;;;;;;;;4980879;28;20099;-67
2024/01/02 02:24:07;;;;;;;14.23;3.40;;;;;;;;;;4990724;28;20065;-67
2024/01/02 02:26:35;;;;;;;16.73;3.15;;;;;;;;;;4969393;28;20050;-66
2024/01/02 02:29:02;;;;;;;18.95;3.47;;;;;;;;;;4984115;28;20524;-67
2024/01/02 02:31:30;;;;;;;16.33;3.15;;;;;;;;;;4988219;28;20414;-66
2024/01/02 02:33:57;;;;;;;14.43;3.13;;;;;;;;;;4983420;28;20082;-66
2024/01/02 02:36:24;;;;;;;18.20;2.90;;;;;;;;;;4990179;28;20050;-67
2024/01/02 02:38:52;;;;;;;13.23;3.05;;;;;;;;;;4989336;28;20062;-66
2024/01/02 02:41:20;;;;;;;18.88;3.00;;;;;;;;;;4990028;28;20130;-66
2024/01/02 02:43:48;;;;;;;12.93;3.08;;;;;;;;;;4986739;28;20054;-67
2024/01/02 02:46:15;;;;;;;14.18;3.17;;;;;;;;;;4988295;28;20205;-67
2024/01/02 02:48:42;;;;;;;10.30;2.90;;;;;;;;;;4984874;28;20069;-67
2024/01/02 02:51:09;;;;;;;13.82;2.80;;;;;;;;;;4987421;28;20050;-67
2024/01/02 02:53:36;;;;;;;15.35;2.58;;;;;;;;;;4989042;28;20055;-67
2024/01/02 02:56:04;;;;;;;15.88;3.03;;;;;;;;;;4988005;28;20054;-67
2024/01/02 02:58:32;;;;;;;14.60;3.08;;;;;;;;;;4987269;28;20057;-67
2024/01/02 03:01:00;;;;;;;14.68;2.65;;;;;;;;;;4986095;28;20046;-66
2024/01/02 03:03:27;;;;;;;16.00;2.75;;;;;;;;;;4988197;28;20046;-67
2024/01/02 03:05:54;;;;;;;19.40;3.17;;;;;;;;;;4986154;28;20046;-66
2024/01/02 03:08:21;;;;;;;9.48;2.80;;;;;;;;;;4983584;28;20384;-67
2024/01/02 03:10:51;;;;;;;17.13;3.08;;;;;;;;;;4988322;28;20050;-67
2024/01/02 03:13:18;;;;;;;13.50;3.25;;;;;;;;;;4988715;28;20050;-67
2024/01/02 03:15:47;;;;;;;10.25;3.08;;;;;;;;;;4985115;28;20431;-67
2024/01/02 03:18:14;;;;;;;13.30;2.67;;;;;;;;;;4971978;28;20065;-66
2024/01/02 03:20:42;;;;;;;10.88;3.38;;;;;;;;;;4987318;28;20061;-66
2024/01/02 03:23:09;;;;;;;7.97;2.40;;;;;;;;;;4989501;28;20046;-67
2024/01/02 03:25:37;;;;;;;9.98;2.40;;;;;;;;;;4988484;28;20486;-67
2024/01/02 03:28:04;;;;;;;12.52;2.67;;;;;;;;;;4989256;28;20055;-66
2024/01/02 03:30:32;;;;;;;13.10;2.65;;;;;;;;;;4986009;28;20069;-66
2024/01/02 03:33:00;;;;;;;16.15;2.50;;;;;;;;;;4980330;28;20058;-66
2024/01/02 03:35:27;;;;;;;9.50;2.50;;;;;;;;;;4987266;28;20047;-67
2024/01/02 03:37:55;;;;;;;16.55;3.33;;;;;;;;;;4967255;28;20513;-67
2024/01/02 03:40:22;;;;;;;7.38;2.50;;;;;;;;;;4965233;28;20062;-67
2024/01/02 03:42:49;;;;;;;22.45;3.13;;;;;;;;;;4987044;28;20134;-67
2024/01/02 03:45:16;;;;;;;10.15;2.75;;;;;;;;;;4985547;28;20042;-67
2024/01/02 03:47:44;;;;;;;11.57;2.95;;;;;;;;;;4989444;28;20729;-67
2024/01/02 03:50:12;;;;;;;12.85;2.70;;;;;;;;;;4984740;28;20057;-67
2024/01/02 03:52:40;;;;;;;12.82;3.05;;;;;;;;;;4987535;28;20053;-67
2024/01/02 03:55:07;;;;;;;10.90;2.70;;;;;;;;;;4987581;28;20528;-67
2024/01/02 03:57:35;;;;;;;12.70;2.85;;;;;;;;;;4989891;28;20055;-67
2024/01/02 04:00:04;;;;;;;9.20;2.83;;;;;;;;;;4991020;28;20066;-67
2024/01/02 04:02:31;;;;;;;14.32;3.80;;;;;;;;;;4990029;28;20054;-67
2024/01/02 04:04:59;;;;;;;16.52;3.40;;;;;;;;;;4971069;28;20050;-67
2024/01/02 04:07:27;;;;;;;14.65;3.60;;;;;;;;;;4988616;28;20494;-67
2024/01/02 04:09:54;;;;;;;10.05;3.38;;;;;;;;;;4992353;28;20098;-67
2024/01/02 04:12:22;;;;;;;10.15;3.63;;;;;;;;;;4991941;28;20050;-67
2024/01/02 04:14:49;;;;;;;10.23;3.83;;;;;;;;;;4981831;28;20406;-67
2024/01/02 04:17:16;;;;;;;10.32;3.85;;;;;;;;;;4986091;28;20054;-68
2024/01/02 04:19:43;;;;;;;8.95;3.50;;;;;;;;;;4982949;28;20506;-67
2024/01/02 04:22:11;;;;;;;13.63;3.75;;;;;;;;;;4989589;28;20057;-67
2024/01/02 04:24:39;;;;;;;15.98;5.43;;;;;;;;;;4988065;28;20042;-67
2024/01/02 04:27:06;;;;;;;10.50;4.40;;;;;;;;;;4991856;28;20050;-67
2024/01/02 04:29:34;;;;;;;11.00;5.10;;;;;;;;;;4988050;28;20046;-67
2024/01/02 04:32:01;;;;;;;15.07;5.03;;;;;;;;;;4970167;28;20058;-67
2024/01/02 04:34:28;;;;;;;14.55;4.80;;;;;;;;;;4991228;28;20046;-67
2024/01/02 04:36:55;;;;;;;10.35;4.63;;;;;;;;;;4988596;28;20047;-67
2024/01/02 04:39:22;;;;;;;10.80;4.43;;;;;;;;;;4989482;28;20490;-67
2024/01/02 04:41:52;;;;;;;13.23;5.30;;;;;;;;;;4976543;28;20049;-67
2024/01/02 04:44:19;;;;;;;15.02;4.50;;;;;;;;;;4992080;28;20051;-66
2024/01/02 04:46:46;;;;;;;12.70;4.45;;;;;;;;;;4989627;28;20176;-67
2024/01/02 04:49:14;;;;;;;11.32;4.47;;;;;;;;;;4991427;28;20073;-67
2024/01/02 04:51:41;;;;;;;12.75;4.63;;;;;;;;;;4973776;28;20105;-67
2024/01/02 04:54:08;;;;;;;10.02;4.50;;;;;;;;;;4990750;28;20062;-67
2024/01/02 04:56:35;;;;;;;11.40;4.82;;;;;;;;;;4990005;28;20548;-67
2024/01/02 04:59:04;;;;;;;12.07;5.20;;;;;;;;;;4989817;28;20294;-67
2024/01/02 05:01:31;;;;;;;10.20;4.93;;;;;;;;;;4990297;28;20501;-67
2024/01/02 05:03:59;;;;;;;14.07;5.90;;;;;;;;;;4990904;28;20482;-67
2024/01/02 05:06:26;;;;;;;11.15;4.50;;;;;;;;;;4989564;28;20054;-67
2024/01/02 05:08:53;;;;;;;10.80;5.20;;;;;;;;;;4985934;28;20065;-68
2024/01/02 05:11:21;;;;;;;13.73;4.97;;;;;;;;;;4991301;28;20051;-68
2024/01/02 05:13:48;;;;;;;11.27;5.55;;;;;;;;;;4989765;28;20073;-67
2024/01/02 05:16:17;;;;;;;12.63;5.97;;;;;;;;;;4989240;28;20043;-67
2024/01/02 05:18:44;;;;;;;9.57;5.25;;;;;;;;;;4989080;28;20149;-68
2024/01/02 05:21:11;;;;;;;10.48;4.88;;;;;;;;;;4987155;28;20054;-68
2024/01/02 05:23:38;;;;;;;14.60;5.10;;;;;;;;;;4988961;28;20061;-68
2024/01/02 05:26:06;;;;;;;17.17;5.70;;;;;;;;;;4989091;28;20058;-68
2024/01/02 05:28:33;;;;;;;10.88;4.75;;;;;;;;;;4990639;28;20050;-68
2024/01/02 05:31:00;;;;;;;9.70;4.60;;;;;;;;;;4988182;28;20050;-68
2024/01/02 05:33:29;;;;;;;12.93;4.70;;;;;;;;;;4990549;28;20490;-68
2024/01/02 05:35:56;;;;;;;10.68;4.60;;;;;;;;;;4986296;28;20054;-68
2024/01/02 05:38:24;;;;;;;11.05;3.60;;;;;;;;;;4985969;28;20625;-68
2024/01/02 05:40:51;;;;;;;6.60;3.33;;;;;;;;;;4987196;28;20054;-68
2024/01/02 05:43:18;;;;;;;8.10;3.30;;;;;;;;;;4984809;28;20057;-67
2024/01/02 05:45:45;;;;;;;4.57;3.08;;;;;;;;;;4989891;28;20043;-69
2024/01/02 05:48:13;;;;;;;8.02;3.25;;;;;;;;;;4985660;28;20058;-68
2024/01/02 05:50:41;;;;;;;6.82;3.28;;;;;;;;;;4978461;28;20057;-68
2024/01/02 05:53:10;;;;;;;4.47;3.10;;;;;;;;;;4989152;28;20061;-68
2024/01/02 05:55:37;;;;;;;4.88;2.95;;;;;;;;;;4988673;28;20125;-68
2024/01/02 05:58:05;;;;;;;9.45;2.85;;;;;;;;;;4986735;28;20046;-68
2024/01/02 06:00:32;;;;;;;4.88;2.30;;;;;;;;;;4987954;28;20042;-68
2024/01/02 06:02:59;;;;;;;5.88;3.03;;;;;;;;;;4985891;28;20047;-68
2024/01/02 06:05:26;;;;;;;4.93;2.85;;;;;;;;;;4982361;28;20165;-67
2024/01/02 06:07:55;;;;;;;7.47;2.80;;;;;;;;;;4984139;28;20425;-68
2024/01/02 06:10:22;;;;;;;5.72;2.83;;;;;;;;;;4988816;28;20050;-68
2024/01/02 06:12:50;;;;;;;5.13;2.38;;;;;;;;;;4986264;28;20065;-68
2024/01/02 06:15:17;;;;;;;4.28;2.65;;;;;;;;;;4989375;28;20493;-68
2024/01/02 06:17:44;;;;;;;4.53;2.75;;;;;;;;;;4985976;28;20063;-68
2024/01/02 06:20:12;;;;;;;4.25;2.50;;;;;;;;;;4943058;28;1165758;-67
2024/01/02 06:22:39;;;;;;;5.90;2.30;;;;;;;;;;4988390;28;20129;-67
2024/01/02 06:25:09;;;;;;;3.33;2.30;;;;;;;;;;4971289;28;20050;-67
2024/01/02 06:27:36;;;;;;;3.50;2.40;;;;;;;;;;4988363;28;20069;-67
2024/01/02 06:30:04;;;;;;;4.53;2.00;;;;;;;;;;4989590;28;20480;-68
2024/01/02 06:32:33;;;;;;;3.13;2.00;;;;;;;;;;4986634;28;20050;-68
2024/01/02 06:35:00;;;;;;;5.45;2.40;;;;;;;;;;4971023;28;20073;-67
2024/01/02 06:37:27;;;;;;;4.57;2.35;;;;;;;;;;4985642;28;20046;-67
2024/01/02 06:39:56;;;;;;;3.53;2.15;;;;;;;;;;4986829;28;20058;-68
2024/01/02 06:42:24;;;;;;;3.85;2.63;;;;;;;;;;4986446;28;20056;-68
2024/01/02 06:44:52;;;;;;;3.00;2.28;;;;;;;;;;4987270;28;20062;-67
2024/01/02 06:47:19;;;;;;;3.65;2.00;;;;;;;;;;4987651;28;20078;-67
2024/01/02 06:49:46;;;;;;;4.97;2.30;;;;;;;;;;4972798;28;20137;-67
2024/01/02 06:52:14;;;;;;;4.43;2.47;;;;;;;;;;4988892;28;20062;-68
2024/01/02 06:54:41;;;;;;;6.10;2.28;;;;;;;;;;4987922;28;20050;-67
2024/01/02 06:57:08;;;;;;;4.57;2.35;;;;;;;;;;4989198;28;20046;-67
2024/01/02 06:59:37;;;;;;;4.65;2.60;;;;;;;;;;4986841;28;20046;-67
2024/01/02 07:02:05;;;;;;;4.47;2.40;;;;;;;;;;4987177;28;20038;-69
2024/01/02 07:04:32;;;;;;;4.25;2.58;;;;;;;;;;4988115;28;20861;-67
2024/01/02 07:06:59;;;;;;;6.90;2.90;;;;;;;;;;4984462;28;20057;-69
2024/01/02 07:09:26;;;;;;;4.65;2.60;;;;;;;;;;4988097;28;20042;-68
2024/01/02 07:11:54;;;;;;;4.82;2.70;;;;;;;;;;4981221;28;20482;-68
2024/01/02 07:14:21;;;;;;;5.63;2.60;;;;;;;;;;4988241;28;20042;-71
2024/01/02 07:16:49;;;;;;;6.28;2.90;;;;;;;;;;4986970;28;20855;-70
2024/01/02 07:19:17;;;;;;;6.35;3.72;;;;;;;;;;4985719;28;20506;-71
2024/01/02 07:21:44;;;;;;;9.70;3.55;;;;;;;;;;4983644;28;20046;-70
2024/01/02 07:24:11;;;;;;;7.28;2.80;;;;;;;;;;4984349;28;20050;-70
2024/01/02 07:26:38;;;;;;;6.70;3.15;;;;;;;;;;4988985;28;20046;-70
2024/01/02 07:29:06;;;;;;;15.18;3.88;;;;;;;;;;4981596;28;20054;-70
2024/01/02 07:31:35;;;;;;;18.15;4.45;;;;;;;;;;4966842;28;20051;-71
2024/01/02 07:34:03;;;;;;;18.15;4.07;;;;;;;;;;4964068;28;20053;-71
2024/01/02 07:36:31;;;;;;;12.75;4.47;;;;;;;;;;4984251;28;20050;-71
2024/01/02 07:38:58;;;;;;;12.57;4.25;;;;;;;;;;4982773;28;20069;-71
2024/01/02 07:41:25;;;;;;;12.55;4.05;;;;;;;;;;4987331;28;20424;-71
2024/01/02 07:43:52;;;;;;;14.05;3.53;;;;;;;;;;4978343;28;20043;-71
2024/01/02 07:46:20;;;;;;;13.13;3.28;;;;;;;;;;4989104;28;20050;-71
2024/01/02 07:48:47;;;;;;;21.58;3.17;;;;;;;;;;4975581;28;20050;-71
2024/01/02 07:51:15;;;;;;;27.60;2.78;;;;;;;;;;4986209;28;20162;-71
2024/01/02 07:53:43;;;;;;;29.83;2.33;;;;;;;;;;4994542;28;20046;-71
2024/01/02 07:56:10;;;;;;;30.75;2.83;;;;;;;;;;4982727;28;20042;-71
2024/01/02 07:58:37;;;;;;;25.45;3.15;;;;;;;;;;4986153;28;20579;-71
2024/01/02 08:01:05;;;;;;;29.55;3.30;;;;;;;;;;4986048;28;20103;-71
2024/01/02 08:03:32;;;;;;;28.27;3.08;;;;;;;;;;4980029;28;20074;-71
2024/01/02 08:05:59;;;;;;;30.25;2.85;;;;;;;;;;4987021;28;20065;-71
2024/01/02 08:08:28;;;;;;;33.10;2.78;;;;;;;;;;4988322;28;20055;-71
2024/01/02 08:10:55;;;;;;;27.08;4.00;;;;;;;;;;4968158;28;20050;-71
2024/01/02 08:13:22;;;;;;;29.60;2.15;;;;;;;;;;4989183;28;20057;-71
2024/01/02 08:15:50;;;;;;;23.85;3.03;;;;;;;;;;4984996;28;20473;-71
2024/01/02 08:18:17;;;;;;;20.33;3.00;;;;;;;;;;4976682;28;20395;-71
2024/01/02 08:20:45;;;;;;;26.05;2.38;;;;;;;;;;4984787;28;20058;-70
2024/01/02 08:23:12;;;;;;;29.77;3.22;;;;;;;;;;4983373;28;20047;-68
2024/01/02 08:25:41;;;;;;;29.00;2.72;;;;;;;;;;4980604;28;20055;-68
2024/01/02 08:28:08;;;;;;;25.65;2.22;;;;;;;;;;4982026;28;20050;-68
2024/01/02 08:30:35;;;;;;;32.28;3.65;;;;;;;;;;4986534;28;20054;-70
2024/01/02 08:33:03;;;;;;;20.40;2.45;;;;;;;;;;4980924;28;20057;-69
2024/01/02 08:35:30;;;;;;;33.28;2.60;;;;;;;;;;4983700;28;20057;-68
2024/01/02 08:37:57;;;;;;;30.08;2.47;;;;;;;;;;4985092;28;20169;-68
2024/01/02 08:40:25;;;;;;;29.27;2.72;;;;;;;;;;4964662;28;20061;-69
2024/01/02 08:42:54;;;;;;;31.67;2.38;;;;;;;;;;4980005;28;20047;-68
2024/01/02 08:45:21;;;;;;;22.33;1.98;;;;;;;;;;4990186;28;20050;-68
2024/01/02 08:47:48;;;;;;;25.63;2.92;;;;;;;;;;4991062;28;20130;-68
2024/01/02 08:50:15;;;;;;;25.30;3.38;;;;;;;;;;4987165;28;20058;-68
2024/01/02 08:52:47;;;;;;;21.38;1.98;;;;;;;;;;4973835;28;20047;-69
2024/01/02 08:55:14;;;;;;;29.45;2.20;;;;;;;;;;4982077;28;20093;-68
2024/01/02 08:57:42;;;;;;;24.77;2.10;;;;;;;;;;4972714;28;20046;-68
2024/01/02 09:00:14;;;;;;;24.38;3.60;;;;;;;;;;4991048;28;20057;-69
2024/01/02 09:02:42;;;;;;;29.27;2.95;;;;;;;;;;4976943;28;20442;-68
2024/01/02 09:05:09;;;;;;;28.58;2.67;;;;;;;;;;4991456;28;20043;-68
2024/01/02 09:07:37;;;;;;;22.67;2.17;;;;;;;;;;4988090;28;20046;-68
2024/01/02 09:10:05;;;;;;;17.40;2.03;;;;;;;;;;4977312;28;20061;-69
2024/01/02 09:12:32;;;;;;;20.15;2.42;;;;;;;;;;4971215;28;20054;-68
2024/01/02 09:15:00;;;;;;;30.60;2.45;;;;;;;;;;4989954;28;20050;-68
2024/01/02 09:17:29;;;;;;;21.30;2.05;;;;;;;;;;4992040;28;20401;-68
2024/01/02 09:19:55;;;;;;;17.05;2.85;;;;;;;;;;4984145;28;20051;-68
2024/01/02 09:22:23;;;;;;;27.63;2.75;;;;;;;;;;4982951;28;20081;-68
2024/01/02 09:24:51;;;;;;;24.05;2.97;;;;;;;;;;4987638;28;20462;-68
2024/01/02 09:27:19;;;;;;;20.02;2.22;;;;;;;;;;4990598;28;20058;-69
2024/01/02 09:29:47;;;;;;;27.63;2.40;;;;;;;;;;4988981;28;20387;-68
2024/01/02 09:32:16;;;;;;;23.40;2.15;;;;;;;;;;4988337;28;20065;-69
2024/01/02 09:34:45;;;;;;;22.33;2.95;;;;;;;;;;4985423;28;20054;-70
2024/01/02 09:37:12;;;;;;;20.00;2.05;;;;;;;;;;4966801;28;20057;-69
2024/01/02 09:39:39;;;;;;;24.38;3.25;;;;;;;;;;4988171;28;20069;-69
2024/01/02 09:42:28;;;;;;;30.27;2.15;;;;;;;;;;4990926;28;20643;-69
2024/01/02 09:45:00;;;;;;;20.27;2.15;;;;;;;;;;4983942;28;20042;-69
2024/01/02 09:47:37;;;;;;;25.75;2.97;;;;;;;;;;4990770;28;20522;-69
2024/01/02 09:50:12;;;;;;;22.75;2.72;;;;;;;;;;4984203;28;20490;-69
2024/01/02 09:52:54;;;;;;;29.25;2.38;;;;;;;;;;4970445;28;20137;-69
2024/01/02 09:55:24;;;;;;;21.75;1.92;;;;;;;;;;4987975;28;20042;-69
2024/01/02 09:57:59;;;;;;;27.40;3.05;;;;;;;;;;4984845;28;20050;-69
2024/01/02 10:00:32;;;;;;;27.17;3.17;;;;;;;;;;4989307;28;20057;-69
2024/01/02 10:03:20;;;;;;;32.80;2.78;;;;;;;;;;4987690;28;20051;-68
2024/01/02 10:05:54;;;;;;;28.02;2.78;;;;;;;;;;4951629;28;20046;-69
2024/01/02 10:08:30;;;;;;;25.27;3.17;;;;;;;;;;4987577;28;20054;-69
2024/01/02 10:11:01;;;;;;;21.13;2.60;;;;;;;;;;4985187;28;20042;-69
2024/01/02 10:13:31;;;;;;;32.97;3.22;;;;;;;;;;4973056;28;20496;-69
2024/01/02 10:16:03;;;;;;;33.22;4.20;;;;;;;;;;4987562;28;20061;-69
2024/01/02 10:18:36;;;;;;;27.10;3.47;;;;;;;;;;4970545;28;20057;-69
2024/01/02 10:21:03;;;;;;;;;;;;;;;;;;4984177;28;20053;-69
2024/01/02 10:23:40;;;;;;;27.60;2.60;;;;;;;;;;4986399;28;19921;-69
2024/01/02 10:26:09;;;;;;;27.02;3.08;;;;;;;;;;4983111;28;20042;-69
2024/01/02 10:28:37;;;;;;;26.95;2.95;;;;;;;;;;4968705;28;20058;-69
2024/01/02 10:31:06;;;;;;;26.80;2.97;;;;;;;;;;4973320;28;20061;-68
2024/01/02 10:33:36;;;;;;;23.77;2.92;;;;;;;;;;4983889;28;20040;-69
2024/01/02 10:36:06;;;;;;;25.60;3.00;;;;;;;;;;4969569;28;20050;-69
2024/01/02 10:38:43;;;;;;;31.13;3.30;;;;;;;;;;4987594;28;20416;-70
2024/01/02 10:41:18;;;;;;;28.80;2.72;;;;;;;;;;4983189;28;20101;-69
2024/01/02 10:43:53;;;;;;;33.20;3.30;;;;;;;;;;4987687;28;20453;-71
2024/01/02 10:46:26;;;;;;;26.30;2.50;;;;;;;;;;4985261;28;20058;-70
2024/01/02 10:48:56;;;;;;;24.05;4.28;;;;;;;;;;4983889;28;20042;-71
2024/01/02 10:51:24;;;;;;;24.95;2.60;;;;;;;;;;4967135;28;20058;-71
2024/01/02 10:53:55;;;;;;;30.27;2.38;;;;;;;;;;4988884;28;20046;-71
2024/01/02 10:56:27;;;;;;;20.92;2.95;;;;;;;;;;4989225;28;20088;-71
2024/01/02 10:58:59;;;;;;;19.80;2.97;;;;;;;;;;4970088;28;20064;-70
2024/01/02 11:01:27;;;;;;;21.20;2.67;;;;;;;;;;4979990;28;20057;-71
2024/01/02 11:03:56;;;;;;;18.75;2.13;;;;;;;;;;4988833;28;20049;-71
2024/01/02 11:06:28;;;;;;;23.52;2.67;;;;;;;;;;4978787;28;20424;-70
2024/01/02 11:09:00;;;;;;;29.85;3.03;;;;;;;;;;4982476;28;20490;-71
2024/01/02 11:11:29;;;;;;;23.13;2.88;;;;;;;;;;4976431;28;20100;-71
2024/01/02 11:13:57;;;;;;;28.67;3.42;;;;;;;;;;4979393;28;20129;-71
2024/01/02 11:16:27;;;;;;;22.92;3.58;;;;;;;;;;4989085;28;20042;-70
2024/01/02 11:18:57;;;;;;;22.58;2.70;;;;;;;;;;4987529;28;20104;-71
2024/01/02 11:21:30;;;;;;;22.10;3.08;;;;;;;;;;4986976;28;20050;-70
2024/01/02 11:24:02;;;;;;;26.98;3.28;;;;;;;;;;4987079;28;20093;-71
2024/01/02 11:26:31;;;;;;;29.73;2.78;;;;;;;;;;4986066;28;20050;-70
2024/01/02 11:29:01;;;;;;;27.65;3.90;;;;;;;;;;4978869;28;20525;-71
2024/01/02 11:31:31;;;;;;;24.70;2.80;;;;;;;;;;4984846;28;20057;-70
2024/01/02 11:34:04;;;;;;;26.45;2.83;;;;;;;;;;4989453;28;20038;-70
2024/01/02 11:36:39;;;;;;;26.75;2.55;;;;;;;;;;4987638;28;20473;-70
2024/01/02 11:39:10;;;;;;;22.60;2.53;;;;;;;;;;4985912;28;20085;-70
2024/01/02 11:41:41;;;;;;;21.95;2.13;;;;;;;;;;4985453;28;20054;-71
2024/01/02 11:44:10;;;;;;;17.65;2.22;;;;;;;;;;4976258;28;20050;-70
2024/01/02 11:46:38;;;;;;;17.23;2.35;;;;;;;;;;4987286;28;20113;-70
2024/01/02 11:49:10;;;;;;;25.02;2.72;;;;;;;;;;4988390;28;20045;-70
2024/01/02 11:51:40;;;;;;;27.20;3.85;;;;;;;;;;4987942;28;20130;-70
2024/01/02 11:54:17;;;;;;;28.20;4.53;;;;;;;;;;4987096;28;20049;-69
2024/01/02 11:56:45;;;;;;;22.45;4.35;;;;;;;;;;4984096;28;20689;-68
2024/01/02 11:59:16;;;;;;;26.08;3.65;;;;;;;;;;4986258;28;20046;-68
2024/01/02 12:01:48;;;;;;;26.15;3.65;;;;;;;;;;4984303;28;20057;-68
2024/01/02 12:04:20;;;;;;;33.88;4.03;;;;;;;;;;4971200;28;20050;-69
2024/01/02 12:06:50;;;;;;;27.98;4.30;;;;;;;;;;4968875;28;20052;-68
2024/01/02 12:09:19;;;;;;;29.35;3.95;;;;;;;;;;4987664;28;20073;-68
2024/01/02 12:11:48;;;;;;;34.35;4.68;;;;;;;;;;4967190;28;20058;-68
2024/01/02 12:14:21;;;;;;;30.05;3.47;;;;;;;;;;4988865;28;20461;-67
2024/01/02 12:16:49;;;;;;;30.92;4.55;;;;;;;;;;4986745;28;20046;-69
2024/01/02 12:19:24;;;;;;;29.20;3.80;;;;;;;;;;4991016;28;20054;-68
2024/01/02 12:21:52;;;;;;;33.47;3.65;;;;;;;;;;4988869;28;20053;-69
2024/01/02 12:24:20;;;;;;;34.60;4.05;;;;;;;;;;4989205;28;20486;-69
2024/01/02 12:26:49;;;;;;;29.83;4.72;;;;;;;;;;4990702;28;20046;-68
2024/01/02 12:29:20;;;;;;;30.50;3.88;;;;;;;;;;4988516;28;20061;-68
2024/01/02 12:31:50;;;;;;;38.17;4.43;;;;;;;;;;4989474;28;20054;-68
2024/01/02 12:34:21;;;;;;;36.42;5.03;;;;;;;;;;4989681;28;20068;-67
2024/01/02 12:36:49;;;;;;;38.03;4.03;;;;;;;;;;4990354;28;20474;-68
2024/01/02 12:39:18;;;;;;;45.38;4.45;;;;;;;;;;4987671;28;20105;-68
2024/01/02 12:41:51;;;;;;;32.88;3.55;;;;;;;;;;4988542;28;20457;-69
2024/01/02 12:44:19;;;;;;;38.28;5.18;;;;;;;;;;4990882;28;20122;-68
2024/01/02 12:46:49;;;;;;;31.98;3.72;;;;;;;;;;4986935;28;20046;-68
2024/01/02 12:49:19;;;;;;;37.45;4.32;;;;;;;;;;4980213;28;20053;-69
2024/01/02 12:51:47;;;;;;;43.97;4.93;;;;;;;;;;4985923;28;20054;-68
2024/01/02 12:54:15;;;;;;;37.30;4.43;;;;;;;;;;4986407;28;20082;-69
2024/01/02 12:56:45;;;;;;;46.70;5.07;;;;;;;;;;4985022;28;20046;-68
2024/01/02 12:59:14;;;;;;;40.75;4.40;;;;;;;;;;4989939;28;20065;-68
2024/01/02 13:01:42;;;;;;;31.80;3.72;;;;;;;;;;4988379;28;20062;-69
2024/01/02 13:04:14;;;;;;;46.30;4.80;;;;;;;;;;4989136;28;20486;-69
2024/01/02 13:06:41;;;;;;;37.22;5.05;;;;;;;;;;4981539;28;20149;-69
2024/01/02 13:09:10;;;;;;;44.42;3.75;;;;;;;;;;4988544;28;20501;-69
2024/01/02 13:11:37;;;;;;;41.70;4.55;;;;;;;;;;4980099;28;20054;-69
2024/01/02 13:14:05;;;;;;;36.97;4.57;;;;;;;;;;4983784;28;20038;-69
2024/01/02 13:16:34;;;;;;;37.67;4.43;;;;;;;;;;4988163;28;20053;-69
2024/01/02 13:19:01;;;;;;;44.22;4.88;;;;;;;;;;4989829;28;20053;-68
2024/01/02 13:21:28;;;;;;;39.15;3.85;;;;;;;;;;4984784;28;20085;-68
2024/01/02 13:23:56;;;;;;;40.50;4.43;;;;;;;;;;4983165;28;20269;-69
2024/01/02 13:26:24;;;;;;;45.78;4.18;;;;;;;;;;4990516;28;20073;-68
2024/01/02 13:28:52;;;;;;;43.92;4.65;;;;;;;;;;4990817;28;20087;-68
2024/01/02 13:31:40;;;;;;;37.45;4.55;;;;;;;;;;4987070;28;20050;-68
2024/01/02 13:34:08;;;;;;;28.40;3.75;;;;;;;;;;4971031;28;20398;-68
2024/01/02 13:36:46;;;;;;;42.17;4.47;;;;;;;;;;4985475;28;20050;-68
2024/01/02 13:39:28;;;;;;;41.17;4.82;;;;;;;;;;4989266;28;20051;-67
2024/01/02 13:41:56;;;;;;;36.63;3.80;;;;;;;;;;4984913;28;20061;-68
2024/01/02 13:44:23;;;;;;;40.47;4.10;;;;;;;;;;4989050;28;20687;-68
2024/01/02 13:46:50;;;;;;;39.10;3.38;;;;;;;;;;4990513;28;20046;-68
2024/01/02 13:49:19;;;;;;;42.58;4.70;;;;;;;;;;4987015;28;20085;-68
2024/01/02 13:51:46;;;;;;;34.60;4.22;;;;;;;;;;4986572;28;20366;-67
2024/01/02 13:54:14;;;;;;;53.63;4.55;;;;;;;;;;4991186;28;20544;-68
2024/01/02 13:56:49;;;;;;;48.60;6.60;;;;;;;;;;4986428;28;20042;-68
2024/01/02 13:59:17;;;;;;;53.30;4.82;;;;;;;;;;4988906;28;20077;-67
2024/01/02 14:01:47;;;;;;;43.22;5.20;;;;;;;;;;4983941;28;20066;-67
2024/01/02 14:04:21;;;;;;;39.20;4.80;;;;;;;;;;4985155;28;20047;-68
2024/01/02 14:06:49;;;;;;;67.10;6.70;;;;;;;;;;4988551;28;20042;-68
2024/01/02 14:09:17;;;;;;;62.53;8.63;;;;;;;;;;4988685;28;20163;-68
2024/01/02 14:11:54;;;;;;;67.47;10.45;;;;;;;;;;4987235;28;20101;-67
2024/01/02 14:14:25;;;;;;;67.70;11.93;;;;;;;;;;4987488;28;20072;-68
2024/01/02 14:16:54;;;;;;;102.25;15.00;;;;;;;;;;4969553;28;20053;-67
2024/01/02 14:19:24;;;;;;;58.95;11.82;;;;;;;;;;4989534;28;20058;-68
2024/01/02 14:21:53;;;;;;;68.15;12.65;;;;;;;;;;4983571;28;20051;-67
2024/01/02 14:24:26;;;;;;;81.93;11.38;;;;;;;;;;4963119;28;20509;-68
2024/01/02 14:27:00;;;;;;;69.20;10.88;;;;;;;;;;4985806;28;20053;-68
2024/01/02 14:29:31;;;;;;;62.00;9.07;;;;;;;;;;4962127;28;20145;-68
2024/01/02 14:32:04;;;;;;;54.70;8.55;;;;;;;;;;4987276;28;20042;-69
2024/01/02 14:34:41;;;;;;;61.72;9.25;;;;;;;;;;4990122;28;20057;-68
2024/01/02 14:37:13;;;;;;;56.42;7.38;;;;;;;;;;4983463;28;20097;-68
2024/01/02 14:39:49;;;;;;;48.70;7.83;;;;;;;;;;4986610;28;20054;-68